Flight Track Log - Related Links

Times and Time Zones

All times are in EST time to prevent confusion due to time zone crossing. See the SWA286 flight status page for this flight to view local times or setup timezone preferences in your user account.

Time Position Orientation Groundspeed Altitude Reporting Facility
EST Latitude Longitude Course Direction KTS MPH feet Rate Location/Type
Sun 06:11:21 PM 33.4333 -112.0333 270° West 176 203 2,000  Level Phoenix TRACON
Sun 06:12:27 PM 33.4333 -112.1000 270° West 214 246 4,200 2,227 Climbing Phoenix TRACON
Sun 06:12:58 PM 33.4417 -112.1372 285° West 224 258 5,600 2,935 Climbing Albuquerque Center
Sun 06:13:59 PM 33.5033 -112.1253 North 247 284 8,700 2,488 Climbing Albuquerque Center
Sun 06:15:01 PM 33.5736 -112.0747 31° Northeast 303 349 10,700 1,902 Climbing Albuquerque Center
Sun 06:16:02 PM 33.6628 -112.0117 30° Northeast 374 430 12,600 2,439 Climbing Albuquerque Center
Sun 06:17:04 PM 33.7628 -111.9386 31° Northeast 417 480 15,700 2,634 Climbing Albuquerque Center
Sun 06:18:05 PM 33.8669 -111.8633 31° Northeast 436 502 18,000 2,439 Climbing Albuquerque Center
Sun 06:19:07 PM 33.9950 -111.7697 31° Northeast 466 536 20,700 2,293 Climbing Albuquerque Center
Sun 06:20:08 PM 34.1247 -111.6956 25° Northeast 478 550 22,700 1,805 Climbing Albuquerque Center
Sun 06:21:10 PM 34.2375 -111.6561 16° North 484 557 24,400 1,659 Climbing Albuquerque Center
Sun 06:22:11 PM 34.3706 -111.6042 18° North 496 571 26,100 1,805 Climbing Albuquerque Center
Sun 06:23:13 PM 34.5042 -111.5503 18° North 504 580 28,100 2,244 Climbing Albuquerque Center
Sun 06:24:14 PM 34.6456 -111.4192 37° Northeast 533 613 30,700 2,098 Climbing Albuquerque Center
Sun 06:25:16 PM 34.7503 -111.2861 46° Northeast 541 623 32,400 1,694 Climbing Albuquerque Center
Sun 06:26:18 PM 34.8561 -111.1536 46° Northeast 546 628 34,200 1,268 Climbing Albuquerque Center
Sun 06:27:19 PM 34.9597 -111.0206 46° Northeast 543 625 35,000 1,171 Climbing Albuquerque Center
Sun 06:28:21 PM 35.0658 -110.8856 46° Northeast 529 609 36,600 976 Climbing Albuquerque Center
Sun 06:29:22 PM 35.1761 -110.7475 46° Northeast 513 590 37,000 195 Climbing Albuquerque Center
Sun 06:30:24 PM 35.2661 -110.6308 47° Northeast 499 574 37,000  Level Albuquerque Center
Sun 06:31:25 PM 35.3558 -110.5131 47° Northeast 495 570 37,000  Level Albuquerque Center
Sun 06:32:27 PM 35.4633 -110.3775 46° Northeast 495 570 37,000  Level Albuquerque Center
Sun 06:33:29 PM 35.5550 -110.2589 46° Northeast 498 573 37,000  Level Albuquerque Center
Sun 06:34:30 PM 35.6603 -110.1217 47° Northeast 496 571 37,000  Level Albuquerque Center
Sun 06:35:32 PM 35.7506 -110.0047 46° Northeast 493 567 37,000  Level Albuquerque Center
Sun 06:36:33 PM 35.8414 -109.8861 47° Northeast 495 570 37,000  Level Albuquerque Center
Sun 06:37:25 PM 35.9322 -109.7681 46° Northeast 497 572 37,000  Level Denver Center
Sun 06:38:26 PM 36.0217 -109.6506 47° Northeast 492 566 37,000  Level Denver Center
Sun 06:39:28 PM 36.1256 -109.5122 47° Northeast 490 564 37,000  Level Denver Center
Sun 06:40:29 PM 36.2144 -109.3944 47° Northeast 488 562 37,000  Level Denver Center
Sun 06:41:31 PM 36.3028 -109.2767 47° Northeast 485 558 37,000  Level Denver Center
Sun 06:42:33 PM 36.4064 -109.1383 47° Northeast 486 559 37,000  Level Denver Center
Sun 06:43:34 PM 36.4947 -109.0194 47° Northeast 486 559 37,000  Level Denver Center
Sun 06:44:36 PM 36.5847 -108.8992 47° Northeast 491 565 37,000  Level Denver Center
Sun 06:45:37 PM 36.6892 -108.7594 47° Northeast 492 566 37,000  Level Denver Center
Sun 06:46:39 PM 36.7778 -108.6378 48° Northeast 493 567 37,000  Level Denver Center
Sun 06:47:41 PM 36.8858 -108.5011 45° Northeast 495 570 37,000  Level Denver Center
Sun 06:48:42 PM 36.9775 -108.3844 45° Northeast 492 566 37,000  Level Denver Center
Sun 06:49:44 PM 37.0683 -108.2653 46° Northeast 492 566 37,000  Level Denver Center
Sun 06:50:46 PM 37.1753 -108.1261 46° Northeast 496 571 37,000  Level Denver Center
Sun 06:51:47 PM 37.2672 -108.0050 46° Northeast 499 574 37,000  Level Denver Center
Sun 06:52:49 PM 37.3750 -107.8650 46° Northeast 501 577 37,000  Level Denver Center
Sun 06:53:51 PM 37.4667 -107.7472 46° Northeast 496 571 37,000  Level Denver Center
Sun 06:54:52 PM 37.5711 -107.6061 47° Northeast 493 567 37,000  Level Denver Center
Sun 06:55:54 PM 37.6619 -107.4867 46° Northeast 493 567 37,000  Level Denver Center
Sun 06:57:07 PM 37.7519 -107.3672 46° Northeast 492 566 37,000  Level Denver Center
Sun 06:58:10 PM 37.8725 -107.2086 46° Northeast 490 564 37,000  Level Denver Center
Sun 06:59:11 PM 37.9772 -107.0636 47° Northeast 498 573 37,000  Level Denver Center
Sun 07:00:13 PM 38.0653 -106.9433 47° Northeast 492 566 37,000  Level Denver Center
Sun 07:01:15 PM 38.1686 -106.8042 47° Northeast 487 560 37,000  Level Denver Center
Sun 07:02:16 PM 38.2564 -106.6847 47° Northeast 485 558 37,000  Level Denver Center
Sun 07:03:18 PM 38.3444 -106.5644 47° Northeast 487 560 37,000  Level Denver Center
Sun 07:04:20 PM 38.4369 -106.4381 47° Northeast 488 562 37,000 -341 Level Denver Center
Sun 07:05:21 PM 38.5292 -106.3108 47° Northeast 489 563 36,300 -1,707 Descending Denver Center
Sun 07:06:23 PM 38.6342 -106.1631 48° Northeast 483 556 33,500 -2,613 Descending Denver Center
Sun 07:07:25 PM 38.7267 -106.0369 47° Northeast 486 559 30,900 -2,390 Descending Denver Center
Sun 07:08:26 PM 38.8156 -105.9122 48° Northeast 477 549 28,600 -2,244 Descending Denver Center
Sun 07:09:28 PM 38.9064 -105.7842 48° Northeast 455 524 26,300 -2,129 Descending Denver Center
Sun 07:10:30 PM 38.9839 -105.6739 48° Northeast 439 505 24,200 -2,098 Descending Denver Center
Sun 07:11:31 PM 39.0717 -105.5506 47° Northeast 421 484 22,000 -1,902 Descending Denver Center
Sun 07:12:33 PM 39.1472 -105.4442 48° Northeast 402 463 20,300 -1,452 Descending Denver Center
Sun 07:13:35 PM 39.2208 -105.3517 44° Northeast 365 420 19,000 -1,561 Descending Denver Center
Sun 07:14:36 PM 39.2722 -105.2353 60° Northeast 359 413 17,100 -1,805 Descending Denver Center
Sun 07:15:38 PM 39.2950 -105.1119 77° East 352 405 15,300 -1,258 Descending Denver Center
Sun 07:16:40 PM 39.3161 -104.9925 77° East 343 395 14,500 -683 Descending Denver Center
Sun 07:17:41 PM 39.3428 -104.8769 73° East 320 368 13,900 -1,073 Descending Denver Center
Sun 07:18:43 PM 39.4158 -104.8156 33° Northeast 311 358 12,300 -1,500 Descending Denver Center
Sun 07:19:45 PM 39.4942 -104.7547 31° Northeast 307 353 10,800 -1,415 Descending Denver Center
Sun 07:20:46 PM 39.5656 -104.7022 30° Northeast 300 345 9,400 -1,366 Descending Denver Center
Sun 07:21:48 PM 39.6361 -104.6631 23° Northeast 279 321 8,000 -823 Descending Denver Center
Sun 07:22:50 PM 39.7117 -104.6619 North 245 282 7,700 -634 Descending Denver Center
Sun 07:23:51 PM 39.7644 -104.6614 360° North 196 226 6,700 -927 Descending Denver Center
Sun 07:24:53 PM 39.8125 -104.6614 360° North 164 189 5,800 -629 Descending Denver Center
Sun 07:25:55 PM 39.8456 -104.6603 North 137 158 5,400 -387 Descending Denver Center
Sun 07:27:00 PM 39.8500 -104.6667 North  Level FlightAware Approximate
Sun 07:34:00 PM 39.8617 -104.6732 North  Level Estimated
Sun 07:35:00 PM 39.8617 -104.6732 North  Level Estimated
Sun 07:36:00 PM 39.8617 -104.6732 North  Level Estimated

Login

Don't have an account? Register now (free) for customized features, flight alerts, and more!